Time;durP1;ratioP1;P1;durP2;ratioP2;P2;SDS_P1;SDS_P2;PMS_P1;PMS_P2;Temp;Humidity;BMP_temperature;BMP_pressure;BME280_temperature;BME280_humidity;BME280_pressure;Samples;Min_cycle;Max_cycle;Signal;HPM_P1;HPM_P2
2024/01/31 00:09:05;;;;;;;13.15;10.48;;;;;;;20.83;44.33;102364.81;41488625;28;20042;-74
2024/01/31 00:29:12;;;;;;;15.15;11.10;;;;;;;20.79;44.23;102372.00;41506387;28;20065;-75
2024/01/31 00:49:12;;;;;;;13.90;10.52;;;;;;;20.66;44.67;102357.63;41495360;28;20169;-75
2024/01/31 01:09:13;;;;;;;13.88;10.98;;;;;;;20.55;44.96;102350.22;41495547;28;20042;-75
2024/01/31 01:29:13;;;;;;;14.68;10.95;;;;;;;20.54;45.04;102340.59;41483539;28;20099;-75
2024/01/31 01:49:14;;;;;;;15.45;11.77;;;;;;;20.50;44.65;102339.88;41490459;28;20052;-75
2024/01/31 02:09:15;;;;;;;14.43;11.35;;;;;;;20.51;44.73;102302.13;41489180;28;20140;-73
2024/01/31 02:29:15;;;;;;;15.65;11.85;;;;;;;20.49;44.30;102293.44;41509202;28;20049;-75
2024/01/31 02:49:16;;;;;;;16.13;12.20;;;;;;;20.36;44.59;102277.34;41512259;28;20053;-74
2024/01/31 03:09:21;;;;;;;15.20;11.82;;;;;;;20.31;44.71;102281.94;41496905;28;20425;-77
2024/01/31 03:29:22;;;;;;;15.50;12.00;;;;;;;20.26;44.34;102287.41;41498793;28;20073;-74
2024/01/31 03:49:23;;;;;;;15.90;12.10;;;;;;;20.22;44.54;102284.97;41504247;28;20046;-74
2024/01/31 04:09:25;;;;;;;15.93;11.48;;;;;;;20.20;44.56;102292.06;41503469;28;20050;-73
2024/01/31 04:29:27;;;;;;;16.20;12.38;;;;;;;20.12;44.33;102301.13;41499661;28;20088;-74
2024/01/31 04:49:28;;;;;;;14.80;11.65;;;;;;;20.12;44.59;102295.03;41487499;28;20077;-72
2024/01/31 05:09:29;;;;;;;15.13;11.75;;;;;;;20.12;44.47;102292.41;41494570;28;20076;-74
2024/01/31 05:29:30;;;;;;;19.60;11.35;;;;;;;21.01;42.35;102284.97;41484316;28;20073;-75
2024/01/31 05:49:30;;;;;;;20.08;11.80;;;;;;;21.13;43.14;102280.06;41490132;28;20057;-72
2024/01/31 06:09:38;;;;;;;41.80;15.55;;;;;;;20.78;37.84;102273.72;41508273;28;20041;-76
2024/01/31 06:29:39;;;;;;;30.88;15.57;;;;;;;21.22;40.51;102274.34;41553622;28;20053;-74
2024/01/31 06:49:40;;;;;;;24.63;14.80;;;;;;;21.43;41.29;102288.28;41595922;28;20041;-76
2024/01/31 07:09:40;;;;;;;23.58;14.68;;;;;;;21.43;42.06;102281.25;41568019;28;20052;-75
2024/01/31 07:29:46;;;;;;;22.45;13.40;;;;;;;21.46;42.07;102282.88;41536421;28;20042;-76
2024/01/31 07:49:47;;;;;;;;;;;;;;;21.56;41.82;102299.09;41576997;28;20073;-77
2024/01/31 08:09:47;;;;;;;19.65;13.48;;;;;;;21.49;41.81;102297.69;41547537;28;19925;-77
2024/01/31 08:29:53;;;;;;;21.30;13.52;;;;;;;21.55;42.09;102269.22;41489861;28;20068;-76
2024/01/31 08:49:53;;;;;;;18.60;12.70;;;;;;;21.72;42.11;102270.22;41518066;28;20554;-75
2024/01/31 09:09:54;;;;;;;17.77;12.18;;;;;;;21.64;42.36;102260.06;41507993;28;20065;-79
2024/01/31 09:29:54;;;;;;;15.70;11.25;;;;;;;21.79;42.24;102265.47;41547008;28;20060;-78
2024/01/31 09:49:55;;;;;;;15.88;11.48;;;;;;;21.71;42.51;102245.63;41585292;28;20050;-79
2024/01/31 10:09:56;;;;;;;15.25;11.18;;;;;;;21.70;42.43;102204.38;41573969;28;20049;-78
2024/01/31 10:29:57;;;;;;;12.98;9.95;;;;;;;21.68;42.15;102193.06;41549741;28;20073;-78
2024/01/31 10:50:00;;;;;;;14.50;10.73;;;;;;;21.93;41.79;102167.22;41504613;28;20046;-76
2024/01/31 11:10:01;;;;;;;14.00;10.73;;;;;;;21.88;41.78;102148.97;41524159;28;20037;-73
2024/01/31 11:30:03;;;;;;;15.32;10.80;;;;;;;21.87;41.85;102123.53;41505133;28;20057;-73
2024/01/31 11:50:04;;;;;;;12.23;9.70;;;;;;;21.91;42.06;102120.66;41381547;28;20772;-74
2024/01/31 12:10:09;;;;;;;14.57;10.20;;;;;;;22.08;41.59;102105.69;41535954;28;20053;-77
2024/01/31 12:30:11;;;;;;;12.77;9.50;;;;;;;22.04;42.05;102067.25;41519417;28;20064;-76
2024/01/31 12:50:12;;;;;;;12.50;9.40;;;;;;;22.18;41.83;102067.34;41514894;28;20088;-78
2024/01/31 13:10:14;;;;;;;13.65;9.38;;;;;;;21.96;42.39;102043.06;41491755;28;20069;-78
2024/01/31 13:30:14;;;;;;;11.90;8.68;;;;;;;21.90;42.48;102024.00;41473636;28;20223;-71
2024/01/31 13:50:15;;;;;;;11.13;8.30;;;;;;;21.84;42.91;102013.81;41507716;28;20042;-78
2024/01/31 14:10:17;;;;;;;9.70;8.07;;;;;;;21.81;43.08;102013.13;41524956;28;20046;-77
2024/01/31 14:30:19;;;;;;;10.85;7.88;;;;;;;21.82;41.96;102002.47;41529300;28;20088;-76
2024/01/31 14:50:20;;;;;;;10.35;8.15;;;;;;;21.68;43.79;102003.25;41532913;28;20116;-77
2024/01/31 15:10:22;;;;;;;11.63;7.65;;;;;;;21.59;43.91;101990.53;41640999;28;20045;-83
2024/01/31 15:30:26;;;;;;;10.82;7.53;;;;;;;21.59;44.21;101985.25;41582922;28;20049;-75
2024/01/31 15:50:27;;;;;;;10.75;7.60;;;;;;;21.51;44.50;101998.00;41540545;28;20105;-77
2024/01/31 16:10:29;;;;;;;9.98;7.45;;;;;;;21.37;43.85;102012.75;41524671;28;20073;-76
2024/01/31 16:30:29;;;;;;;10.88;7.65;;;;;;;21.31;44.20;101999.88;41538210;28;20045;-77
2024/01/31 16:50:29;;;;;;;11.52;7.50;;;;;;;21.23;44.06;101995.03;41553781;28;20052;-74
2024/01/31 17:10:30;;;;;;;11.07;7.57;;;;;;;21.20;44.15;101996.97;41482600;28;20038;-77
2024/01/31 17:30:35;;;;;;;12.50;7.32;;;;;;;21.11;44.29;101990.38;41489908;28;20059;-74
2024/01/31 17:50:36;;;;;;;12.43;9.20;;;;;;;21.22;45.32;101989.84;41500187;28;20054;-74
2024/01/31 18:10:38;;;;;;;13.98;10.13;;;;;;;21.43;48.35;101969.41;41511184;28;20385;-76
2024/01/31 18:30:39;;;;;;;14.80;10.40;;;;;;;21.51;48.79;101942.66;41492684;28;20046;-72
2024/01/31 18:50:39;;;;;;;13.63;10.20;;;;;;;21.53;50.25;101939.00;41489703;28;20049;-70
2024/01/31 19:10:39;;;;;;;19.30;11.20;;;;;;;21.28;50.82;101923.66;41496024;28;20508;-69
2024/01/31 19:30:40;;;;;;;16.25;11.00;;;;;;;21.33;51.62;101929.50;41481587;28;20048;-74
2024/01/31 19:50:41;;;;;;;13.93;10.88;;;;;;;21.49;50.53;101933.97;41521416;28;20046;-68
2024/01/31 20:10:42;;;;;;;16.15;10.45;;;;;;;21.55;49.28;101928.34;41474518;28;20504;-69
2024/01/31 20:30:43;;;;;;;17.77;10.77;;;;;;;21.35;49.66;101906.56;41460689;28;20049;-74
2024/01/31 20:50:44;;;;;;;16.58;12.25;;;;;;;20.96;48.37;101855.09;41463761;28;20045;-72
2024/01/31 21:10:44;;;;;;;23.13;13.85;;;;;;;20.97;48.59;101845.41;41475267;28;20046;-71
2024/01/31 21:30:47;;;;;;;17.25;12.55;;;;;;;20.95;48.78;101832.34;41476760;28;20045;-75
2024/01/31 21:50:47;;;;;;;16.25;12.80;;;;;;;20.79;49.43;101788.38;41556960;28;20049;-74
2024/01/31 22:10:48;;;;;;;18.45;12.63;;;;;;;20.78;49.84;101810.38;41614642;28;20038;-74
2024/01/31 22:30:50;;;;;;;16.23;12.50;;;;;;;20.76;49.85;101814.88;41596352;28;20053;-76
2024/01/31 22:50:50;;;;;;;17.17;13.30;;;;;;;20.70;49.83;101780.09;41633353;28;20505;-75
2024/01/31 23:10:52;;;;;;;17.17;13.38;;;;;;;20.68;49.79;101771.44;41614038;28;20068;-75
2024/01/31 23:30:52;;;;;;;17.67;13.63;;;;;;;20.64;49.65;101737.38;41511380;28;20034;-70
2024/01/31 23:50:53;;;;;;;20.05;14.07;;;;;;;20.66;49.23;101723.31;41492296;28;20052;-71
